createdAt,value
2023-05-14T00:01:06.774Z,30.42
2023-05-14T00:03:37.049Z,33.35
2023-05-14T00:06:04.018Z,30.85
2023-05-14T00:08:31.551Z,32.33
2023-05-14T00:10:58.991Z,34.15
2023-05-14T00:13:26.430Z,34.95
2023-05-14T00:15:53.222Z,33.60
2023-05-14T00:18:24.433Z,29.98
2023-05-14T00:21:04.050Z,29.55
2023-05-14T00:23:30.880Z,31.08
2023-05-14T00:25:57.811Z,29.20
2023-05-14T00:28:24.611Z,29.92
2023-05-14T00:30:52.004Z,34.97
2023-05-14T00:33:18.980Z,31.13
2023-05-14T00:35:46.008Z,27.35
2023-05-14T00:38:17.442Z,30.25
2023-05-14T00:40:46.012Z,33.60
2023-05-14T00:43:13.138Z,29.75
2023-05-14T00:45:40.217Z,31.00
2023-05-14T00:48:07.162Z,28.83
2023-05-14T00:50:34.903Z,31.65
2023-05-14T00:53:01.789Z,37.08
2023-05-14T00:55:30.175Z,29.48
2023-05-14T00:57:58.169Z,27.45
2023-05-14T01:00:25.279Z,29.05
2023-05-14T01:02:52.464Z,28.50
2023-05-14T01:05:19.466Z,25.98
2023-05-14T01:07:55.315Z,26.88
2023-05-14T01:10:27.621Z,27.65
2023-05-14T01:13:13.249Z,31.67
2023-05-14T01:15:40.181Z,33.13
2023-05-14T01:18:10.862Z,27.55
2023-05-14T01:20:37.821Z,27.90
2023-05-14T01:23:04.767Z,26.13
2023-05-14T01:25:32.389Z,27.52
2023-05-14T01:28:25.663Z,29.23
2023-05-14T01:31:08.956Z,27.30
2023-05-14T01:33:42.324Z,26.90
2023-05-14T01:36:13.110Z,23.77
2023-05-14T01:38:41.784Z,29.38
2023-05-14T01:41:09.262Z,29.23
2023-05-14T01:43:36.475Z,30.98
2023-05-14T01:46:04.843Z,29.70
2023-05-14T01:48:31.822Z,24.33
2023-05-14T01:50:58.833Z,31.35
2023-05-14T01:53:26.072Z,28.75
2023-05-14T01:55:52.973Z,27.13
2023-05-14T01:58:20.000Z,25.23
2023-05-14T02:00:46.829Z,25.38
2023-05-14T02:03:13.959Z,31.42
2023-05-14T02:05:43.859Z,27.52
2023-05-14T02:08:12.859Z,28.30
2023-05-14T02:10:39.630Z,30.33
2023-05-14T02:13:06.673Z,29.27
2023-05-14T02:15:33.520Z,28.83
2023-05-14T02:18:00.525Z,28.55
2023-05-14T02:20:27.716Z,30.80
2023-05-14T02:22:54.653Z,28.65
2023-05-14T02:25:21.470Z,33.03
2023-05-14T02:27:48.336Z,24.45
2023-05-14T02:30:15.358Z,30.90
2023-05-14T02:32:42.720Z,32.88
2023-05-14T02:35:10.022Z,28.30
2023-05-14T02:37:37.425Z,30.35
2023-05-14T02:40:04.943Z,26.98
2023-05-14T02:42:32.427Z,28.15
2023-05-14T02:44:59.704Z,28.80
2023-05-14T02:47:26.814Z,31.80
2023-05-14T02:49:53.610Z,28.05
2023-05-14T02:52:20.720Z,32.42
2023-05-14T02:54:47.664Z,25.67
2023-05-14T02:57:14.446Z,28.33
2023-05-14T02:59:41.535Z,25.92
2023-05-14T03:02:08.828Z,32.45
2023-05-14T03:04:36.234Z,29.75
2023-05-14T03:07:03.226Z,29.48
2023-05-14T03:09:30.097Z,31.42
2023-05-14T03:11:57.606Z,38.33
2023-05-14T03:14:26.346Z,35.85
2023-05-14T03:16:53.208Z,29.38
2023-05-14T03:19:20.461Z,32.22
2023-05-14T03:21:47.935Z,26.90
2023-05-14T03:24:14.745Z,28.60
2023-05-14T03:26:41.702Z,31.80
2023-05-14T03:29:10.799Z,30.40
2023-05-14T03:31:40.686Z,28.98
2023-05-14T03:34:07.484Z,29.65
2023-05-14T03:36:39.558Z,28.25
2023-05-14T03:39:07.340Z,32.25
2023-05-14T03:41:36.339Z,35.03
2023-05-14T03:44:03.129Z,32.00
2023-05-14T03:46:40.834Z,31.25
2023-05-14T03:49:08.434Z,31.70
2023-05-14T03:51:41.387Z,30.65
2023-05-14T03:54:08.389Z,30.13
2023-05-14T03:56:35.326Z,34.72
2023-05-14T03:59:03.102Z,28.00
2023-05-14T04:01:56.723Z,27.67
2023-05-14T04:04:25.613Z,27.40
2023-05-14T04:06:52.538Z,34.17
2023-05-14T04:09:19.593Z,28.08
2023-05-14T04:11:46.634Z,26.25
2023-05-14T04:14:13.419Z,28.23
2023-05-14T04:16:40.438Z,32.25
2023-05-14T04:19:07.506Z,27.92
2023-05-14T04:21:36.953Z,27.52
2023-05-14T04:24:05.576Z,34.45
2023-05-14T04:26:32.841Z,33.22
2023-05-14T04:29:02.939Z,32.33
2023-05-14T04:31:34.364Z,27.95
2023-05-14T04:34:04.079Z,26.10
2023-05-14T04:36:31.773Z,32.25
2023-05-14T04:38:58.580Z,35.67
2023-05-14T04:41:26.001Z,31.52
2023-05-14T04:43:56.134Z,31.52
2023-05-14T04:46:22.994Z,27.95
2023-05-14T04:48:50.437Z,28.73
2023-05-14T04:51:17.508Z,29.92
2023-05-14T04:53:44.403Z,24.20
2023-05-14T04:56:12.802Z,27.25
2023-05-14T04:58:40.231Z,29.13
2023-05-14T05:01:08.237Z,26.70
2023-05-14T05:03:35.460Z,26.15
2023-05-14T05:06:02.296Z,28.88
2023-05-14T05:08:29.401Z,27.08
2023-05-14T05:10:58.677Z,27.48
2023-05-14T05:13:25.542Z,28.25
2023-05-14T05:15:52.471Z,32.08
2023-05-14T05:18:19.564Z,28.67
2023-05-14T05:20:46.605Z,31.25
2023-05-14T05:23:13.401Z,25.17
2023-05-14T05:25:40.183Z,26.02
2023-05-14T05:28:07.066Z,25.13
2023-05-14T05:30:34.118Z,29.20
2023-05-14T05:33:01.113Z,33.88
2023-05-14T05:35:28.174Z,30.60
2023-05-14T05:37:54.986Z,25.02
2023-05-14T05:40:22.106Z,27.23
2023-05-14T05:42:49.271Z,24.60
2023-05-14T05:45:16.255Z,26.00
2023-05-14T05:47:43.543Z,26.95
2023-05-14T05:50:10.817Z,27.10
2023-05-14T05:52:37.800Z,26.98
2023-05-14T05:55:04.999Z,31.70
2023-05-14T05:57:32.124Z,24.77
2023-05-14T05:59:59.008Z,24.15
2023-05-14T06:02:25.983Z,25.23
2023-05-14T06:04:53.255Z,23.00
2023-05-14T06:07:20.187Z,25.02
2023-05-14T06:09:47.026Z,26.13
2023-05-14T06:12:13.847Z,20.77
2023-05-14T06:14:40.666Z,25.92
2023-05-14T06:17:07.656Z,24.85
2023-05-14T06:19:34.392Z,25.98
2023-05-14T06:22:02.966Z,21.63
2023-05-14T06:24:29.830Z,27.95
2023-05-14T06:26:56.820Z,22.35
2023-05-14T06:29:23.678Z,25.23
2023-05-14T06:31:51.761Z,19.48
2023-05-14T06:34:20.553Z,21.48
2023-05-14T06:36:48.079Z,20.10
2023-05-14T06:39:14.988Z,20.80
2023-05-14T06:41:42.350Z,21.73
2023-05-14T06:44:14.631Z,18.45
2023-05-14T06:46:48.484Z,21.60
2023-05-14T06:49:21.740Z,18.30
2023-05-14T06:51:55.953Z,18.60
2023-05-14T06:54:24.522Z,18.08
2023-05-14T06:56:51.389Z,21.02
2023-05-14T06:59:18.822Z,19.65
2023-05-14T07:01:46.661Z,20.70
2023-05-14T07:04:14.582Z,19.77
2023-05-14T07:06:41.790Z,17.67
2023-05-14T07:09:09.014Z,19.35
2023-05-14T07:11:35.779Z,17.98
2023-05-14T07:14:02.561Z,19.90
2023-05-14T07:16:31.699Z,18.75
2023-05-14T07:18:58.925Z,18.65
2023-05-14T07:21:26.269Z,22.10
2023-05-14T07:23:53.278Z,19.02
2023-05-14T07:26:20.327Z,17.70
2023-05-14T07:28:47.207Z,21.55
2023-05-14T07:31:14.114Z,19.77
2023-05-14T07:33:41.322Z,18.52
2023-05-14T07:36:09.351Z,20.58
2023-05-14T07:38:37.149Z,18.77
2023-05-14T07:41:04.630Z,18.90
2023-05-14T07:43:31.886Z,23.20
2023-05-14T07:45:58.919Z,20.48
2023-05-14T07:48:25.881Z,23.95
2023-05-14T07:50:52.768Z,23.83
2023-05-14T07:53:19.812Z,22.98
2023-05-14T07:55:48.424Z,21.42
2023-05-14T07:58:16.474Z,20.02
2023-05-14T08:00:43.710Z,14.93
2023-05-14T08:03:10.856Z,18.65
2023-05-14T08:05:39.216Z,23.05
2023-05-14T08:08:05.967Z,17.67
2023-05-14T08:10:33.192Z,22.35
2023-05-14T08:13:00.048Z,20.80
2023-05-14T08:15:27.976Z,20.02
2023-05-14T08:17:55.130Z,16.67
2023-05-14T08:20:22.716Z,13.80
2023-05-14T08:22:51.525Z,19.25
2023-05-14T08:25:18.697Z,17.95
2023-05-14T08:27:45.921Z,15.93
2023-05-14T08:30:13.150Z,20.98
2023-05-14T08:32:40.078Z,15.05
2023-05-14T08:35:07.123Z,14.68
2023-05-14T08:37:34.110Z,15.30
2023-05-14T08:40:01.570Z,15.20
2023-05-14T08:42:28.977Z,17.48
2023-05-14T08:45:06.351Z,15.90
2023-05-14T08:47:33.506Z,19.73
2023-05-14T08:50:07.523Z,15.18
2023-05-14T08:52:34.676Z,15.43
2023-05-14T08:55:04.208Z,14.57
2023-05-14T08:57:32.067Z,14.07
2023-05-14T08:59:59.333Z,17.23
2023-05-14T09:02:30.115Z,15.55
2023-05-14T09:05:00.697Z,16.67
2023-05-14T09:07:27.623Z,16.90
2023-05-14T09:09:54.752Z,17.55
2023-05-14T09:12:21.862Z,13.43
2023-05-14T09:14:49.828Z,11.80
2023-05-14T09:17:17.528Z,14.75
2023-05-14T09:19:47.450Z,11.77
2023-05-14T09:22:18.603Z,13.23
2023-05-14T09:24:45.748Z,11.63
2023-05-14T09:27:19.872Z,12.88
2023-05-14T09:29:47.661Z,17.08
2023-05-14T09:32:14.545Z,11.77
2023-05-14T09:34:41.515Z,10.05
2023-05-14T09:37:08.966Z,10.32
2023-05-14T09:39:36.769Z,11.18
2023-05-14T09:42:03.729Z,13.90
2023-05-14T09:44:30.626Z,13.25
2023-05-14T09:46:57.811Z,13.80
2023-05-14T09:49:24.703Z,13.57
2023-05-14T09:51:51.700Z,12.50
2023-05-14T09:54:18.942Z,16.00
2023-05-14T09:56:46.715Z,11.60
2023-05-14T09:59:13.570Z,15.15
2023-05-14T10:01:42.564Z,13.13
2023-05-14T10:04:09.998Z,15.43
2023-05-14T10:06:37.790Z,11.40
2023-05-14T10:09:09.791Z,15.25
2023-05-14T10:11:37.750Z,12.73
2023-05-14T10:14:18.771Z,10.88
2023-05-14T10:16:49.959Z,15.13
2023-05-14T10:19:19.137Z,16.17
2023-05-14T10:21:49.158Z,13.13
2023-05-14T10:24:16.531Z,11.20
2023-05-14T10:26:45.760Z,12.18
2023-05-14T10:29:13.088Z,11.65
2023-05-14T10:31:56.436Z,9.82
2023-05-14T10:34:33.957Z,14.15
2023-05-14T10:37:01.766Z,10.70
2023-05-14T10:39:41.001Z,10.77
2023-05-14T10:42:11.357Z,13.65
2023-05-14T10:44:40.987Z,12.57
2023-05-14T10:47:08.079Z,12.60
2023-05-14T10:49:42.991Z,12.65
2023-05-14T10:52:12.303Z,8.82
2023-05-14T10:54:39.299Z,8.82
2023-05-14T10:57:09.694Z,10.88
2023-05-14T10:59:41.331Z,12.50
2023-05-14T11:02:18.718Z,11.88
2023-05-14T11:04:52.260Z,10.80
2023-05-14T11:07:22.680Z,12.73
2023-05-14T11:09:50.241Z,14.48
2023-05-14T11:12:18.168Z,9.68
2023-05-14T11:14:45.050Z,10.32
2023-05-14T11:17:12.220Z,10.18
2023-05-14T11:19:39.257Z,10.38
2023-05-14T11:22:06.713Z,11.52
2023-05-14T11:24:37.317Z,11.90
2023-05-14T11:27:04.869Z,10.07
2023-05-14T11:29:33.358Z,11.07
2023-05-14T11:32:06.470Z,8.63
2023-05-14T11:34:34.872Z,13.20
2023-05-14T11:37:05.241Z,11.88
2023-05-14T11:39:34.072Z,10.23
2023-05-14T11:42:03.495Z,12.15
2023-05-14T11:44:31.736Z,10.25
2023-05-14T11:46:59.366Z,10.93
2023-05-14T11:49:29.026Z,14.10
2023-05-14T11:51:59.771Z,14.18
2023-05-14T11:54:31.385Z,11.10
2023-05-14T11:56:59.986Z,12.68
2023-05-14T11:59:32.537Z,12.43
2023-05-14T12:02:02.957Z,10.65
2023-05-14T12:04:30.124Z,17.20
2023-05-14T12:06:58.315Z,11.57
2023-05-14T12:09:25.473Z,10.38
2023-05-14T12:11:53.012Z,14.45
2023-05-14T12:14:23.728Z,9.02
2023-05-14T12:16:53.538Z,7.70
2023-05-14T12:19:23.439Z,9.43
2023-05-14T12:21:52.904Z,10.27
2023-05-14T12:24:20.195Z,12.35
2023-05-14T12:26:48.286Z,7.90
2023-05-14T12:29:15.767Z,8.82
2023-05-14T12:31:48.186Z,12.27
2023-05-14T12:34:16.700Z,13.25
2023-05-14T12:36:47.902Z,11.25
2023-05-14T12:39:15.250Z,12.23
2023-05-14T12:41:42.092Z,12.00
2023-05-14T12:44:09.650Z,12.10
2023-05-14T12:46:37.793Z,9.27
2023-05-14T12:49:06.904Z,9.40
2023-05-14T12:51:34.319Z,9.48
2023-05-14T12:54:01.583Z,11.93
2023-05-14T12:56:32.257Z,13.85
2023-05-14T12:58:59.281Z,11.35
2023-05-14T13:01:26.981Z,11.25
2023-05-14T13:04:01.085Z,11.70
2023-05-14T13:06:29.980Z,13.80
2023-05-14T13:09:00.050Z,8.02
2023-05-14T13:11:30.054Z,14.65
2023-05-14T13:13:59.087Z,10.48
2023-05-14T13:16:26.730Z,10.05
2023-05-14T13:18:56.619Z,8.95
2023-05-14T13:21:23.865Z,10.05
2023-05-14T13:23:51.523Z,10.23
2023-05-14T13:26:20.434Z,12.13
2023-05-14T13:28:48.687Z,10.52
2023-05-14T13:31:15.725Z,18.02
2023-05-14T13:33:43.757Z,10.13
2023-05-14T13:36:12.121Z,13.02
2023-05-14T13:38:40.944Z,11.43
2023-05-14T13:41:08.273Z,10.40
2023-05-14T13:43:36.664Z,8.27
2023-05-14T13:46:04.099Z,9.75
2023-05-14T13:48:31.783Z,9.93
2023-05-14T13:50:58.761Z,9.43
2023-05-14T13:53:26.300Z,12.35
2023-05-14T13:55:56.722Z,10.00
2023-05-14T13:58:25.162Z,10.52
2023-05-14T14:00:53.831Z,9.77
2023-05-14T14:03:21.057Z,10.70
2023-05-14T14:05:47.899Z,9.90
2023-05-14T14:08:23.409Z,11.32
2023-05-14T14:10:51.681Z,10.38
2023-05-14T14:13:18.890Z,13.65
2023-05-14T14:15:47.852Z,9.05
2023-05-14T14:18:14.653Z,13.45
2023-05-14T14:20:41.529Z,12.77
2023-05-14T14:23:08.593Z,11.68
2023-05-14T14:25:35.630Z,12.88
2023-05-14T14:28:02.524Z,11.35
2023-05-14T14:30:29.403Z,10.48
2023-05-14T14:32:56.343Z,14.23
2023-05-14T14:35:23.751Z,12.13
2023-05-14T14:37:53.692Z,11.88
2023-05-14T14:40:23.574Z,12.80
2023-05-14T14:42:50.688Z,11.50
2023-05-14T14:45:17.810Z,17.77
2023-05-14T14:47:46.524Z,15.93
2023-05-14T14:50:13.531Z,14.88
2023-05-14T14:52:45.434Z,12.40
2023-05-14T14:55:13.071Z,14.48
2023-05-14T14:57:39.971Z,13.80
2023-05-14T15:00:07.618Z,13.50
2023-05-14T15:02:34.971Z,14.55
2023-05-14T15:05:02.022Z,13.80
2023-05-14T15:07:32.957Z,14.82
2023-05-14T15:10:00.760Z,15.85
2023-05-14T15:12:27.722Z,19.58
2023-05-14T15:14:54.677Z,15.73
2023-05-14T15:17:22.130Z,14.48
2023-05-14T15:19:48.992Z,12.65
2023-05-14T15:22:16.027Z,12.35
2023-05-14T15:24:43.145Z,9.77
2023-05-14T15:27:10.371Z,15.48
2023-05-14T15:29:41.537Z,16.90
2023-05-14T15:32:08.374Z,16.42
2023-05-14T15:34:35.149Z,13.45
2023-05-14T15:37:02.006Z,17.20
2023-05-14T15:39:30.206Z,17.77
2023-05-14T15:41:57.477Z,13.10
2023-05-14T15:44:24.450Z,16.00
2023-05-14T15:46:54.244Z,24.58
2023-05-14T15:49:21.167Z,16.67
2023-05-14T15:51:48.284Z,19.63
2023-05-14T15:54:15.574Z,18.13
2023-05-14T15:56:44.317Z,18.13
2023-05-14T15:59:11.417Z,26.90
2023-05-14T16:01:38.925Z,19.48
2023-05-14T16:04:06.155Z,12.18
2023-05-14T16:06:34.148Z,13.30
2023-05-14T16:09:02.822Z,15.60
2023-05-14T16:11:30.955Z,23.15
2023-05-14T16:13:58.921Z,14.18
2023-05-14T16:16:26.855Z,17.60
2023-05-14T16:19:03.653Z,13.25
2023-05-14T16:21:32.215Z,16.77
2023-05-14T16:23:59.710Z,16.70
2023-05-14T16:26:31.634Z,20.15
2023-05-14T16:28:58.469Z,17.38
2023-05-14T16:31:25.494Z,14.85
2023-05-14T16:33:56.834Z,15.80
2023-05-14T16:36:24.967Z,16.63
2023-05-14T16:41:32.409Z,17.02
2023-05-14T16:44:00.071Z,15.38
2023-05-14T16:46:30.744Z,16.73
2023-05-14T16:48:58.901Z,17.75
2023-05-14T16:51:25.890Z,17.00
2023-05-14T16:53:57.016Z,17.55
2023-05-14T16:56:24.934Z,18.42
2023-05-14T16:58:51.902Z,20.55
2023-05-14T17:01:19.205Z,19.88
2023-05-14T17:03:46.857Z,18.75
2023-05-14T17:06:13.718Z,18.23
2023-05-14T17:08:41.536Z,22.13
2023-05-14T17:11:13.015Z,24.77
2023-05-14T17:13:39.921Z,19.30
2023-05-14T17:16:08.388Z,19.15
2023-05-14T17:18:38.019Z,24.38
2023-05-14T17:21:07.020Z,21.85
2023-05-14T17:23:34.399Z,19.35
2023-05-14T17:26:01.396Z,23.52
2023-05-14T17:28:29.890Z,22.52
2023-05-14T17:30:56.953Z,23.80
2023-05-14T17:33:24.007Z,22.85
2023-05-14T17:35:51.145Z,19.60
2023-05-14T17:38:17.936Z,23.60
2023-05-14T17:40:45.193Z,17.25
2023-05-14T17:43:12.152Z,23.55
2023-05-14T17:45:52.535Z,23.80
2023-05-14T17:48:21.016Z,22.63
2023-05-14T17:50:47.916Z,23.10
2023-05-14T17:53:14.779Z,20.67
2023-05-14T17:55:43.408Z,18.35
2023-05-14T17:58:15.436Z,18.92
2023-05-14T18:00:43.755Z,26.50
2023-05-14T18:03:11.612Z,19.52
2023-05-14T18:05:39.502Z,20.92
2023-05-14T18:08:07.078Z,17.58
2023-05-14T18:10:34.129Z,19.33
2023-05-14T18:13:01.010Z,21.45
2023-05-14T18:15:31.822Z,22.88
2023-05-14T18:20:25.560Z,20.38
2023-05-14T18:22:52.459Z,17.55
2023-05-14T18:25:19.382Z,20.80
2023-05-14T18:27:47.109Z,17.75
2023-05-14T18:30:15.144Z,19.50
2023-05-14T18:32:43.701Z,20.83
2023-05-14T18:35:10.935Z,18.33
2023-05-14T18:37:38.250Z,19.70
2023-05-14T18:40:07.039Z,16.73
2023-05-14T18:42:34.359Z,15.07
2023-05-14T18:45:02.043Z,20.02
2023-05-14T18:47:29.896Z,16.45
2023-05-14T18:49:59.425Z,16.08
2023-05-14T18:52:26.742Z,15.40
2023-05-14T18:54:54.893Z,13.48
2023-05-14T18:57:23.730Z,27.02
2023-05-14T18:59:52.996Z,15.30
2023-05-14T19:02:19.967Z,12.80
2023-05-14T19:04:53.011Z,16.95
2023-05-14T19:07:23.451Z,24.27
2023-05-14T19:09:50.840Z,14.80
2023-05-14T19:12:18.114Z,17.23
2023-05-14T19:14:45.233Z,17.80
2023-05-14T19:17:12.518Z,15.27
2023-05-14T19:19:39.549Z,16.38
2023-05-14T19:24:42.503Z,16.88
2023-05-14T19:27:10.029Z,25.58
2023-05-14T19:29:44.061Z,15.52
2023-05-14T19:32:11.153Z,15.45
2023-05-14T19:34:38.203Z,16.95
2023-05-14T19:37:05.165Z,16.63
2023-05-14T19:39:35.307Z,19.45
2023-05-14T19:42:04.584Z,14.52
2023-05-14T19:44:32.488Z,23.67
2023-05-14T19:47:02.184Z,15.98
2023-05-14T19:49:29.663Z,16.70
2023-05-14T19:51:56.464Z,19.17
2023-05-14T19:54:25.944Z,15.15
2023-05-14T19:56:52.881Z,16.30
2023-05-14T20:01:55.115Z,18.27
2023-05-14T20:04:22.342Z,17.77
2023-05-14T20:06:49.379Z,15.45
2023-05-14T20:09:16.551Z,20.15
2023-05-14T20:11:48.918Z,25.15
2023-05-14T20:14:15.898Z,14.45
2023-05-14T20:16:47.841Z,17.38
2023-05-14T20:19:21.424Z,18.40
2023-05-14T20:21:49.038Z,20.15
2023-05-14T20:24:15.832Z,16.98
2023-05-14T20:26:46.696Z,18.38
2023-05-14T20:29:14.552Z,17.33
2023-05-14T20:31:41.583Z,15.90
2023-05-14T20:34:29.141Z,21.05
2023-05-14T20:36:56.130Z,19.15
2023-05-14T20:39:23.112Z,15.57
2023-05-14T20:41:50.006Z,18.13
2023-05-14T20:44:18.350Z,19.50
2023-05-14T20:46:57.238Z,17.88
2023-05-14T20:49:24.128Z,20.05
2023-05-14T20:51:51.110Z,20.92
2023-05-14T20:54:17.951Z,27.55
2023-05-14T20:56:48.322Z,24.35
2023-05-14T20:59:15.111Z,18.33
2023-05-14T21:01:44.145Z,18.15
2023-05-14T21:04:21.756Z,22.25
2023-05-14T21:06:48.804Z,23.60
2023-05-14T21:09:15.676Z,19.23
2023-05-14T21:11:46.359Z,22.00
2023-05-14T21:14:13.303Z,21.88
2023-05-14T21:16:40.291Z,21.55
2023-05-14T21:19:07.324Z,23.95
2023-05-14T21:21:34.239Z,23.90
2023-05-14T21:24:01.307Z,23.20
2023-05-14T21:26:31.535Z,20.67
2023-05-14T21:28:58.961Z,22.42
2023-05-14T21:31:25.811Z,20.25
2023-05-14T21:33:56.539Z,20.90
2023-05-14T21:36:24.302Z,23.92
2023-05-14T21:39:05.211Z,21.88
2023-05-14T21:41:37.668Z,25.23
2023-05-14T21:44:07.573Z,20.02
2023-05-14T21:46:54.774Z,23.98
2023-05-14T21:49:21.631Z,20.50
2023-05-14T21:51:58.338Z,21.33
2023-05-14T21:54:25.450Z,26.70
2023-05-14T21:56:52.656Z,25.30
2023-05-14T21:59:19.449Z,22.80
2023-05-14T22:04:24.110Z,21.17
2023-05-14T22:06:51.946Z,22.90
2023-05-14T22:09:18.784Z,19.75
2023-05-14T22:11:46.294Z,24.25
2023-05-14T22:14:16.623Z,22.00
2023-05-14T22:16:46.558Z,25.35
2023-05-14T22:19:15.918Z,20.92
2023-05-14T22:21:45.740Z,23.27
2023-05-14T22:24:13.050Z,21.75
2023-05-14T22:26:39.825Z,20.85
2023-05-14T22:29:06.534Z,25.17
2023-05-14T22:31:38.029Z,26.02
2023-05-14T22:34:05.002Z,22.67
2023-05-14T22:36:31.950Z,31.02
2023-05-14T22:39:02.787Z,22.92
2023-05-14T22:41:31.234Z,21.30
2023-05-14T22:43:58.137Z,25.63
2023-05-14T22:46:25.124Z,19.23
2023-05-14T22:48:52.294Z,24.38
2023-05-14T22:51:19.162Z,24.35
2023-05-14T22:53:47.622Z,21.85
2023-05-14T22:56:14.956Z,21.08
2023-05-14T22:58:41.862Z,22.08
2023-05-14T23:01:09.092Z,26.05
2023-05-14T23:03:36.288Z,24.20
2023-05-14T23:06:03.174Z,23.60
2023-05-14T23:08:30.110Z,20.75
2023-05-14T23:10:56.950Z,26.63
2023-05-14T23:13:23.796Z,24.95
2023-05-14T23:15:50.790Z,26.88
2023-05-14T23:18:17.810Z,21.52
2023-05-14T23:20:44.643Z,20.40
2023-05-14T23:23:11.562Z,28.40
2023-05-14T23:25:40.715Z,28.10
2023-05-14T23:28:09.312Z,24.52
2023-05-14T23:30:36.475Z,32.40
2023-05-14T23:33:03.439Z,26.95
2023-05-14T23:35:30.322Z,26.05
2023-05-14T23:37:57.042Z,34.72
2023-05-14T23:40:23.961Z,28.42
2023-05-14T23:42:50.939Z,28.38
2023-05-14T23:45:17.963Z,29.67
2023-05-14T23:47:44.910Z,31.65
2023-05-14T23:50:11.713Z,34.75
2023-05-14T23:52:38.605Z,37.20
2023-05-14T23:55:05.910Z,38.40
2023-05-14T23:57:32.922Z,35.08
2023-05-14T23:59:59.802Z,30.88
